createdAt,value
2023-06-18T00:01:38.282Z,7.90
2023-06-18T00:04:06.397Z,8.68
2023-06-18T00:06:34.397Z,8.05
2023-06-18T00:09:02.646Z,8.82
2023-06-18T00:11:30.631Z,8.50
2023-06-18T00:13:58.594Z,8.23
2023-06-18T00:16:27.979Z,8.15
2023-06-18T00:18:56.037Z,8.60
2023-06-18T00:21:24.049Z,8.55
2023-06-18T00:23:52.056Z,8.38
2023-06-18T00:26:20.011Z,8.68
2023-06-18T00:28:50.055Z,8.02
2023-06-18T00:31:18.988Z,9.05
2023-06-18T00:33:48.370Z,8.68
2023-06-18T00:36:16.403Z,8.38
2023-06-18T00:38:47.087Z,9.00
2023-06-18T00:41:15.111Z,8.57
2023-06-18T00:43:43.089Z,8.23
2023-06-18T00:46:11.083Z,8.43
2023-06-18T00:48:41.509Z,8.55
2023-06-18T00:51:11.327Z,8.70
2023-06-18T00:53:39.269Z,8.00
2023-06-18T00:56:08.253Z,8.85
2023-06-18T00:58:37.511Z,8.50
2023-06-18T01:01:11.240Z,8.75
2023-06-18T01:03:40.678Z,9.10
2023-06-18T01:06:12.453Z,8.25
2023-06-18T01:08:41.591Z,9.00
2023-06-18T01:11:09.734Z,9.45
2023-06-18T01:13:40.970Z,9.40
2023-06-18T01:16:09.591Z,8.98
2023-06-18T01:18:40.962Z,8.57
2023-06-18T01:21:12.115Z,8.73
2023-06-18T01:23:50.335Z,8.85
2023-06-18T01:26:21.752Z,8.77
2023-06-18T01:28:52.599Z,8.85
2023-06-18T01:31:22.882Z,8.90
2023-06-18T01:33:52.450Z,9.00
2023-06-18T01:36:27.145Z,9.02
2023-06-18T01:38:55.111Z,8.80
2023-06-18T01:41:25.451Z,8.80
2023-06-18T01:43:54.967Z,9.20
2023-06-18T01:46:24.299Z,9.10
2023-06-18T01:48:53.772Z,9.00
2023-06-18T01:51:23.177Z,9.32
2023-06-18T01:53:51.483Z,9.00
2023-06-18T01:56:19.469Z,8.77
2023-06-18T01:58:47.604Z,8.48
2023-06-18T02:01:15.590Z,9.20
2023-06-18T02:03:43.699Z,8.68
2023-06-18T02:06:11.840Z,9.05
2023-06-18T02:08:41.222Z,9.05
2023-06-18T02:11:09.736Z,9.27
2023-06-18T02:13:37.699Z,9.10
2023-06-18T02:16:06.093Z,9.68
2023-06-18T02:18:34.092Z,8.55
2023-06-18T02:21:02.076Z,9.18
2023-06-18T02:23:30.107Z,9.07
2023-06-18T02:25:59.884Z,9.20
2023-06-18T02:28:27.952Z,9.05
2023-06-18T02:30:56.780Z,9.18
2023-06-18T02:33:24.972Z,8.95
2023-06-18T02:35:52.917Z,9.45
2023-06-18T02:38:21.445Z,9.07
2023-06-18T02:40:49.581Z,9.23
2023-06-18T02:43:19.773Z,9.02
2023-06-18T02:45:47.773Z,9.20
2023-06-18T02:48:15.804Z,8.45
2023-06-18T02:50:43.798Z,9.45
2023-06-18T02:53:11.762Z,9.40
2023-06-18T02:55:42.287Z,9.40
2023-06-18T02:58:20.139Z,9.65
2023-06-18T03:00:48.226Z,9.43
2023-06-18T03:03:16.386Z,9.32
2023-06-18T03:05:52.488Z,9.35
2023-06-18T03:08:20.759Z,8.80
2023-06-18T03:10:52.418Z,8.82
2023-06-18T03:13:22.122Z,9.05
2023-06-18T03:15:52.838Z,9.50
2023-06-18T03:18:22.018Z,9.50
2023-06-18T03:20:50.838Z,8.85
2023-06-18T03:23:20.364Z,8.95
2023-06-18T03:25:50.471Z,9.10
2023-06-18T03:28:27.650Z,9.13
2023-06-18T03:30:55.762Z,9.43
2023-06-18T03:33:24.141Z,9.38
2023-06-18T03:35:52.740Z,8.98
2023-06-18T03:38:20.731Z,9.40
2023-06-18T03:40:48.732Z,9.05
2023-06-18T03:43:18.270Z,8.65
2023-06-18T03:45:48.563Z,9.30
2023-06-18T03:48:16.900Z,9.20
2023-06-18T03:50:46.549Z,9.27
2023-06-18T03:53:14.820Z,8.45
2023-06-18T03:55:43.391Z,8.95
2023-06-18T03:58:15.767Z,9.68
2023-06-18T04:00:48.280Z,8.98
2023-06-18T04:03:16.364Z,9.18
2023-06-18T04:05:44.371Z,9.20
2023-06-18T04:08:13.452Z,8.90
2023-06-18T04:10:42.745Z,9.05
2023-06-18T04:13:11.881Z,9.27
2023-06-18T04:15:39.992Z,9.55
2023-06-18T04:18:09.387Z,9.02
2023-06-18T04:20:37.392Z,8.75
2023-06-18T04:23:05.855Z,9.27
2023-06-18T04:25:33.916Z,8.85
2023-06-18T04:28:03.984Z,8.88
2023-06-18T04:30:32.308Z,8.93
2023-06-18T04:33:01.577Z,9.20
2023-06-18T04:35:31.685Z,8.95
2023-06-18T04:38:01.077Z,9.05
2023-06-18T04:40:29.700Z,9.48
2023-06-18T04:42:57.724Z,9.25
2023-06-18T04:45:32.201Z,9.63
2023-06-18T04:48:01.145Z,9.43
2023-06-18T04:50:30.894Z,9.43
2023-06-18T04:52:59.103Z,9.32
2023-06-18T04:55:28.700Z,9.25
2023-06-18T04:57:57.305Z,9.32
2023-06-18T05:00:25.495Z,9.18
2023-06-18T05:02:54.927Z,10.00
2023-06-18T05:05:23.584Z,9.52
2023-06-18T05:07:54.626Z,9.32
2023-06-18T05:10:24.645Z,9.07
2023-06-18T05:12:53.040Z,9.48
2023-06-18T05:15:21.716Z,9.40
2023-06-18T05:17:49.855Z,9.10
2023-06-18T05:20:19.690Z,9.05
2023-06-18T05:22:47.868Z,9.05
2023-06-18T05:25:18.487Z,9.50
2023-06-18T05:27:46.475Z,9.43
2023-06-18T05:30:14.653Z,9.00
2023-06-18T05:32:42.913Z,9.30
2023-06-18T05:35:15.308Z,9.40
2023-06-18T05:37:48.734Z,9.43
2023-06-18T05:40:18.090Z,8.98
2023-06-18T05:42:47.439Z,9.15
2023-06-18T05:45:15.941Z,9.20
2023-06-18T05:47:46.624Z,9.55
2023-06-18T05:50:21.909Z,9.45
2023-06-18T05:52:50.238Z,9.63
2023-06-18T05:55:19.722Z,9.00
2023-06-18T05:57:48.734Z,9.05
2023-06-18T06:00:17.390Z,9.27
2023-06-18T06:02:47.034Z,9.43
2023-06-18T06:05:21.675Z,8.77
2023-06-18T06:07:50.680Z,8.27
2023-06-18T06:10:21.120Z,9.45
2023-06-18T06:12:51.041Z,8.98
2023-06-18T06:15:19.378Z,9.30
2023-06-18T06:17:47.884Z,9.13
2023-06-18T06:20:16.710Z,9.30
2023-06-18T06:22:44.724Z,9.10
2023-06-18T06:25:12.713Z,9.18
2023-06-18T06:27:44.125Z,9.05
2023-06-18T06:30:12.846Z,9.25
2023-06-18T06:32:40.946Z,9.52
2023-06-18T06:35:09.480Z,9.50
2023-06-18T06:37:38.072Z,9.40
2023-06-18T06:40:09.663Z,9.55
2023-06-18T06:42:39.386Z,8.98
2023-06-18T06:45:33.230Z,9.60
2023-06-18T06:48:08.674Z,9.38
2023-06-18T06:50:49.009Z,9.15
2023-06-18T06:53:22.348Z,9.13
2023-06-18T06:55:50.654Z,9.27
2023-06-18T06:58:20.773Z,9.27
2023-06-18T07:00:50.220Z,9.10
2023-06-18T07:03:18.803Z,8.70
2023-06-18T07:05:46.834Z,9.52
2023-06-18T07:08:14.802Z,8.70
2023-06-18T07:10:46.001Z,9.30
2023-06-18T07:13:15.004Z,9.32
2023-06-18T07:15:44.369Z,8.80
2023-06-18T07:18:16.362Z,9.00
2023-06-18T07:20:44.331Z,8.85
2023-06-18T07:23:12.346Z,8.85
2023-06-18T07:25:40.506Z,8.27
2023-06-18T07:28:08.453Z,8.15
2023-06-18T07:30:36.469Z,8.35
2023-06-18T07:33:04.592Z,8.60
2023-06-18T07:35:33.959Z,8.43
2023-06-18T07:38:01.960Z,7.78
2023-06-18T07:40:34.280Z,8.57
2023-06-18T07:43:03.359Z,8.50
2023-06-18T07:45:31.296Z,8.60
2023-06-18T07:47:59.289Z,8.80
2023-06-18T07:50:27.346Z,8.75
2023-06-18T07:52:56.660Z,8.57
2023-06-18T07:55:24.908Z,8.95
2023-06-18T07:57:52.885Z,8.52
2023-06-18T08:00:21.246Z,8.60
2023-06-18T08:02:49.508Z,8.05
2023-06-18T08:05:17.486Z,8.85
2023-06-18T08:07:45.534Z,9.13
2023-06-18T08:10:14.858Z,8.60
2023-06-18T08:12:43.242Z,8.45
2023-06-18T08:15:12.495Z,9.63
2023-06-18T08:17:40.452Z,8.95
2023-06-18T08:20:09.572Z,8.80
2023-06-18T08:22:38.326Z,9.10
2023-06-18T08:25:07.852Z,10.50
2023-06-18T08:27:37.266Z,9.93
2023-06-18T08:30:06.446Z,9.45
2023-06-18T08:32:34.531Z,10.27
2023-06-18T08:35:03.177Z,9.90
2023-06-18T08:37:31.188Z,10.43
2023-06-18T08:39:59.207Z,10.02
2023-06-18T08:42:27.160Z,10.35
2023-06-18T08:44:56.461Z,9.80
2023-06-18T08:47:24.671Z,10.50
2023-06-18T08:49:53.112Z,9.77
2023-06-18T08:52:21.484Z,9.82
2023-06-18T08:54:52.416Z,9.30
2023-06-18T08:57:23.214Z,10.15
2023-06-18T08:59:51.168Z,9.73
2023-06-18T09:02:22.467Z,9.38
2023-06-18T09:04:51.161Z,9.50
2023-06-18T09:07:19.247Z,8.75
2023-06-18T09:09:47.295Z,9.25
2023-06-18T09:12:15.903Z,9.73
2023-06-18T09:14:43.887Z,9.30
2023-06-18T09:17:11.924Z,9.30
2023-06-18T09:19:41.378Z,9.30
2023-06-18T09:22:16.371Z,8.30
2023-06-18T09:24:47.620Z,10.50
2023-06-18T09:27:15.605Z,11.05
2023-06-18T09:29:43.765Z,10.60
2023-06-18T09:32:12.466Z,8.80
2023-06-18T09:34:41.986Z,9.40
2023-06-18T09:37:11.160Z,10.52
2023-06-18T09:39:41.086Z,10.07
2023-06-18T09:42:10.376Z,10.82
2023-06-18T09:44:38.383Z,10.32
2023-06-18T09:47:12.177Z,11.07
2023-06-18T09:49:46.859Z,10.00
2023-06-18T09:52:17.317Z,10.70
2023-06-18T09:54:46.060Z,9.93
2023-06-18T09:57:16.270Z,9.90
2023-06-18T09:59:44.302Z,10.77
2023-06-18T10:02:14.900Z,9.82
2023-06-18T10:04:43.256Z,9.70
2023-06-18T10:07:17.136Z,9.35
2023-06-18T10:09:47.867Z,8.65
2023-06-18T10:12:16.430Z,9.13
2023-06-18T10:14:44.410Z,9.70
2023-06-18T10:17:13.841Z,8.75
2023-06-18T10:19:46.937Z,8.40
2023-06-18T10:22:16.989Z,8.80
2023-06-18T10:24:48.608Z,8.65
2023-06-18T10:27:16.674Z,8.02
2023-06-18T10:29:44.653Z,7.45
2023-06-18T10:32:12.673Z,7.53
2023-06-18T10:34:41.459Z,7.20
2023-06-18T10:37:09.892Z,7.43
2023-06-18T10:39:39.287Z,7.05
2023-06-18T10:42:13.482Z,6.75
2023-06-18T10:44:51.887Z,8.07
2023-06-18T10:47:21.377Z,7.72
2023-06-18T10:50:11.471Z,7.90
2023-06-18T10:52:40.212Z,7.30
2023-06-18T10:55:09.766Z,7.65
2023-06-18T10:57:39.561Z,6.72
2023-06-18T11:00:27.716Z,7.63
2023-06-18T11:03:00.152Z,7.72
2023-06-18T11:05:47.642Z,7.88
2023-06-18T11:08:16.262Z,7.82
2023-06-18T11:10:48.517Z,7.72
2023-06-18T11:13:16.972Z,7.57
2023-06-18T11:15:55.475Z,7.85
2023-06-18T11:18:26.817Z,8.05
2023-06-18T11:20:55.471Z,7.65
2023-06-18T11:23:23.896Z,7.93
2023-06-18T11:25:53.308Z,8.95
2023-06-18T11:28:21.912Z,8.80
2023-06-18T11:30:50.551Z,8.85
2023-06-18T11:33:24.753Z,8.60
2023-06-18T11:35:52.784Z,8.60
2023-06-18T11:38:21.005Z,8.13
2023-06-18T11:40:54.584Z,8.45
2023-06-18T11:43:22.619Z,8.32
2023-06-18T11:45:51.082Z,9.32
2023-06-18T11:48:19.210Z,9.35
2023-06-18T11:50:48.651Z,8.77
2023-06-18T11:53:16.636Z,8.52
2023-06-18T11:55:44.610Z,8.90
2023-06-18T11:58:13.922Z,9.30
2023-06-18T12:00:41.875Z,9.75
2023-06-18T12:03:09.903Z,10.27
2023-06-18T12:05:37.995Z,10.88
2023-06-18T12:08:10.584Z,9.95
2023-06-18T12:10:38.715Z,10.02
2023-06-18T12:13:10.959Z,9.23
2023-06-18T12:15:44.085Z,9.80
2023-06-18T12:18:15.976Z,9.23
2023-06-18T12:20:43.959Z,9.43
2023-06-18T12:23:12.806Z,8.80
2023-06-18T12:25:40.768Z,8.80
2023-06-18T12:28:10.290Z,9.02
2023-06-18T12:30:40.773Z,8.57
2023-06-18T12:33:10.439Z,8.43
2023-06-18T12:35:41.332Z,8.18
2023-06-18T12:38:10.512Z,8.40
2023-06-18T12:40:47.648Z,8.25
2023-06-18T12:43:17.165Z,7.80
2023-06-18T12:45:47.152Z,7.93
2023-06-18T12:48:15.927Z,7.88
2023-06-18T12:50:45.700Z,7.68
2023-06-18T12:53:18.050Z,8.20
2023-06-18T12:55:47.293Z,7.32
2023-06-18T12:58:19.803Z,7.70
2023-06-18T13:00:49.366Z,7.47
2023-06-18T13:03:18.209Z,7.65
2023-06-18T13:05:48.032Z,7.55
2023-06-18T13:08:17.602Z,7.93
2023-06-18T13:10:46.390Z,8.15
2023-06-18T13:13:17.407Z,7.80
2023-06-18T13:15:45.695Z,7.70
2023-06-18T13:18:15.793Z,7.43
2023-06-18T13:21:26.523Z,7.43
2023-06-18T13:23:54.560Z,7.47
2023-06-18T13:26:22.740Z,7.15
2023-06-18T13:28:50.704Z,7.50
2023-06-18T13:31:18.703Z,7.47
2023-06-18T13:33:48.037Z,7.50
2023-06-18T13:36:16.054Z,7.32
2023-06-18T13:38:44.032Z,7.35
2023-06-18T13:41:12.035Z,7.20
2023-06-18T13:43:40.109Z,7.43
2023-06-18T13:46:08.176Z,7.32
2023-06-18T13:48:36.241Z,6.90
2023-06-18T13:51:05.653Z,8.55
2023-06-18T13:53:34.290Z,8.02
2023-06-18T13:56:03.091Z,8.45
2023-06-18T13:58:31.125Z,8.55
2023-06-18T14:00:59.069Z,7.72
2023-06-18T14:03:27.222Z,7.57
2023-06-18T14:05:56.058Z,7.70
2023-06-18T14:08:25.468Z,7.50
2023-06-18T14:10:53.670Z,7.45
2023-06-18T14:13:22.155Z,7.60
2023-06-18T14:15:50.230Z,7.65
2023-06-18T14:18:18.197Z,7.22
2023-06-18T14:20:46.120Z,7.43
2023-06-18T14:23:14.227Z,7.45
2023-06-18T14:25:43.923Z,7.60
2023-06-18T14:28:12.008Z,7.10
2023-06-18T14:30:39.996Z,7.03
2023-06-18T14:33:08.009Z,6.63
2023-06-18T14:35:36.092Z,7.70
2023-06-18T14:38:04.123Z,7.00
2023-06-18T14:40:32.121Z,7.10
2023-06-18T14:43:01.407Z,7.07
2023-06-18T14:45:29.453Z,7.10
2023-06-18T14:47:57.448Z,6.47
2023-06-18T14:50:25.656Z,6.93
2023-06-18T14:52:54.279Z,7.03
2023-06-18T14:55:22.587Z,6.90
2023-06-18T14:57:50.757Z,7.75
2023-06-18T15:00:20.295Z,7.15
2023-06-18T15:02:48.443Z,7.85
2023-06-18T15:05:16.496Z,7.35
2023-06-18T15:07:44.466Z,6.95
2023-06-18T15:10:12.684Z,6.68
2023-06-18T15:12:45.147Z,6.97
2023-06-18T15:15:13.222Z,7.00
2023-06-18T15:17:43.202Z,6.50
2023-06-18T15:20:11.907Z,6.68
2023-06-18T15:22:39.873Z,6.65
2023-06-18T15:25:08.388Z,6.30
2023-06-18T15:27:37.352Z,7.05
2023-06-18T15:30:06.631Z,5.90
2023-06-18T15:32:34.668Z,6.43
2023-06-18T15:35:04.025Z,6.35
2023-06-18T15:37:31.962Z,5.70
2023-06-18T15:40:00.013Z,5.18
2023-06-18T15:42:28.017Z,5.10
2023-06-18T15:44:55.960Z,4.57
2023-06-18T15:47:24.050Z,4.50
2023-06-18T15:49:52.070Z,4.65
2023-06-18T15:52:22.760Z,4.40
2023-06-18T15:54:51.188Z,4.25
2023-06-18T15:57:19.720Z,3.97
2023-06-18T15:59:47.684Z,4.65
2023-06-18T16:02:15.676Z,4.70
2023-06-18T16:04:43.750Z,4.72
2023-06-18T16:07:11.737Z,5.18
2023-06-18T16:09:41.051Z,4.90
2023-06-18T16:12:09.841Z,4.70
2023-06-18T16:14:37.834Z,4.80
2023-06-18T16:17:06.145Z,4.85
2023-06-18T16:19:34.267Z,4.78
2023-06-18T16:22:02.557Z,4.38
2023-06-18T16:24:31.318Z,4.10
2023-06-18T16:27:03.068Z,4.35
2023-06-18T16:29:31.037Z,4.20
2023-06-18T16:31:59.012Z,4.53
2023-06-18T16:34:26.984Z,4.18
2023-06-18T16:36:54.956Z,4.25
2023-06-18T16:39:22.911Z,4.20
2023-06-18T16:41:50.866Z,4.47
2023-06-18T16:44:20.565Z,4.13
2023-06-18T16:46:49.038Z,4.30
2023-06-18T16:49:17.086Z,3.80
2023-06-18T16:51:47.810Z,4.18
2023-06-18T16:54:15.969Z,4.15
2023-06-18T16:56:49.657Z,4.15
2023-06-18T16:59:18.184Z,4.30
2023-06-18T17:01:50.266Z,4.32
2023-06-18T17:04:18.871Z,4.22
2023-06-18T17:06:46.817Z,4.00
2023-06-18T17:09:14.838Z,4.32
2023-06-18T17:11:42.834Z,3.85
2023-06-18T17:14:10.900Z,4.50
2023-06-18T17:16:38.926Z,3.95
2023-06-18T17:19:08.323Z,4.07
2023-06-18T17:21:36.307Z,4.30
2023-06-18T17:24:04.350Z,4.28
2023-06-18T17:26:33.465Z,4.25
2023-06-18T17:29:01.429Z,3.78
2023-06-18T17:31:29.403Z,4.40
2023-06-18T17:33:57.392Z,4.43
2023-06-18T17:36:26.685Z,4.47
2023-06-18T17:38:54.742Z,4.15
2023-06-18T17:41:22.817Z,4.30
2023-06-18T17:43:50.801Z,4.55
2023-06-18T17:46:18.952Z,4.32
2023-06-18T17:48:48.644Z,4.45
2023-06-18T17:51:16.890Z,4.10
2023-06-18T17:53:46.714Z,4.43
2023-06-18T17:56:14.698Z,4.38
2023-06-18T17:58:42.702Z,4.05
2023-06-18T18:01:12.216Z,4.57
2023-06-18T18:03:41.652Z,4.40
2023-06-18T18:06:12.131Z,4.50
2023-06-18T18:08:40.189Z,4.32
2023-06-18T18:11:09.480Z,4.25
2023-06-18T18:13:37.594Z,4.22
2023-06-18T18:16:05.909Z,4.88
2023-06-18T18:18:33.898Z,4.40
2023-06-18T18:21:01.865Z,4.28
2023-06-18T18:23:29.834Z,4.22
2023-06-18T18:26:10.115Z,4.35
2023-06-18T18:28:41.302Z,4.22
2023-06-18T18:31:09.413Z,4.40
2023-06-18T18:33:37.524Z,4.45
2023-06-18T18:36:06.517Z,4.40
2023-06-18T18:38:36.808Z,4.57
2023-06-18T18:41:04.781Z,4.80
2023-06-18T18:43:32.920Z,4.72
2023-06-18T18:46:02.311Z,4.90
2023-06-18T18:48:30.279Z,4.68
2023-06-18T18:50:58.431Z,4.78
2023-06-18T18:53:26.383Z,4.82
2023-06-18T18:55:56.380Z,4.63
2023-06-18T18:58:25.332Z,4.72
2023-06-18T19:00:53.298Z,4.88
2023-06-18T19:03:23.962Z,5.18
2023-06-18T19:05:52.425Z,4.70
2023-06-18T19:08:20.537Z,4.55
2023-06-18T19:10:48.497Z,4.90
2023-06-18T19:13:16.474Z,4.47
2023-06-18T19:15:44.644Z,4.80
2023-06-18T19:18:12.672Z,4.40
2023-06-18T19:20:42.344Z,4.35
2023-06-18T19:23:11.934Z,4.50
2023-06-18T19:25:40.110Z,4.18
2023-06-18T19:28:08.092Z,4.65
2023-06-18T19:30:36.162Z,4.43
2023-06-18T19:33:04.464Z,4.53
2023-06-18T19:35:32.492Z,4.55
2023-06-18T19:38:01.853Z,3.92
2023-06-18T19:40:29.824Z,4.72
2023-06-18T19:42:57.810Z,4.45
2023-06-18T19:45:26.009Z,4.97
2023-06-18T19:47:55.828Z,4.60
2023-06-18T19:50:24.317Z,4.28
2023-06-18T19:52:52.541Z,4.70
2023-06-18T19:55:22.368Z,4.70
2023-06-18T19:57:50.360Z,5.05
2023-06-18T20:00:19.356Z,4.47
2023-06-18T20:02:47.466Z,4.65
2023-06-18T20:05:15.670Z,4.80
2023-06-18T20:07:43.710Z,4.60
2023-06-18T20:10:11.981Z,4.95
2023-06-18T20:12:43.149Z,5.13
2023-06-18T20:15:12.378Z,5.10
2023-06-18T20:17:40.412Z,4.78
2023-06-18T20:20:09.769Z,5.00
2023-06-18T20:22:37.876Z,5.00
2023-06-18T20:25:06.425Z,4.85
2023-06-18T20:27:34.376Z,5.00
2023-06-18T20:30:03.730Z,5.38
2023-06-18T20:32:33.006Z,4.90
2023-06-18T20:35:01.899Z,5.53
2023-06-18T20:37:29.910Z,5.03
2023-06-18T20:39:57.851Z,4.70
2023-06-18T20:42:26.014Z,4.65
2023-06-18T20:44:54.018Z,4.22
2023-06-18T20:47:23.773Z,4.45
2023-06-18T20:49:51.909Z,4.65
2023-06-18T20:52:19.840Z,4.70
2023-06-18T20:54:47.794Z,4.32
2023-06-18T20:57:16.033Z,4.13
2023-06-18T20:59:47.515Z,4.28
2023-06-18T21:02:15.590Z,4.40
2023-06-18T21:04:44.897Z,4.47
2023-06-18T21:07:12.845Z,4.10
2023-06-18T21:09:40.796Z,4.10
2023-06-18T21:12:09.575Z,4.18
2023-06-18T21:14:37.635Z,4.38
2023-06-18T21:17:06.249Z,3.83
2023-06-18T21:19:34.249Z,4.15
2023-06-18T21:22:04.178Z,3.97
2023-06-18T21:24:32.255Z,4.00
2023-06-18T21:27:00.266Z,4.20
2023-06-18T21:29:28.232Z,4.03
2023-06-18T21:31:58.921Z,4.00
2023-06-18T21:34:27.402Z,3.83
2023-06-18T21:36:58.201Z,3.95
2023-06-18T21:39:27.848Z,4.07
2023-06-18T21:41:58.266Z,4.20
2023-06-18T21:44:26.368Z,3.83
2023-06-18T21:46:54.306Z,4.05
2023-06-18T21:49:22.233Z,3.78
2023-06-18T21:51:50.152Z,4.20
2023-06-18T21:54:18.136Z,3.97
2023-06-18T21:56:47.514Z,3.60
2023-06-18T21:59:15.513Z,3.75
2023-06-18T22:01:43.460Z,3.97
2023-06-18T22:04:11.414Z,3.60
2023-06-18T22:06:39.423Z,3.97
2023-06-18T22:09:07.392Z,4.13
2023-06-18T22:11:35.350Z,4.47
2023-06-18T22:14:04.645Z,4.32
2023-06-18T22:16:32.804Z,4.47
2023-06-18T22:19:10.221Z,4.05
2023-06-18T22:21:38.144Z,4.00
2023-06-18T22:24:06.971Z,4.10
2023-06-18T22:26:34.910Z,4.25
2023-06-18T22:29:04.347Z,4.28
2023-06-18T22:31:32.305Z,4.50
2023-06-18T22:34:01.285Z,4.45
2023-06-18T22:36:29.249Z,3.97
2023-06-18T22:38:57.203Z,3.72
2023-06-18T22:41:25.409Z,3.88
2023-06-18T22:43:53.328Z,4.43
2023-06-18T22:46:23.524Z,4.05
2023-06-18T22:48:51.585Z,4.00
2023-06-18T22:51:19.573Z,3.72
2023-06-18T22:53:47.543Z,4.15
2023-06-18T22:56:15.463Z,3.88
2023-06-18T22:58:43.410Z,3.60
2023-06-18T23:01:11.419Z,3.70
2023-06-18T23:03:40.795Z,3.65
2023-06-18T23:06:08.849Z,3.90
2023-06-18T23:08:36.772Z,3.78
2023-06-18T23:11:04.785Z,3.58
2023-06-18T23:13:32.877Z,3.38
2023-06-18T23:16:00.836Z,3.90
2023-06-18T23:18:28.761Z,3.90
2023-06-18T23:20:58.279Z,3.80
2023-06-18T23:23:29.688Z,3.85
2023-06-18T23:25:57.758Z,3.90
2023-06-18T23:28:26.021Z,3.53
2023-06-18T23:30:53.993Z,3.47
2023-06-18T23:33:21.996Z,4.03
2023-06-18T23:35:49.954Z,3.72
2023-06-18T23:38:19.240Z,3.60
2023-06-18T23:40:47.177Z,3.67
2023-06-18T23:43:15.215Z,3.55
2023-06-18T23:45:43.237Z,3.35
2023-06-18T23:48:11.183Z,3.38
2023-06-18T23:50:39.140Z,3.70
2023-06-18T23:53:07.162Z,3.42
2023-06-18T23:55:36.482Z,3.00
2023-06-18T23:58:04.412Z,3.35
